sensor_id;sensor_type;location;lat;lon;timestamp;temperature;humidity
55004;DHT22;40900;52.710;6.438;2022-11-14T00:00:40;6.50;99.90
55004;DHT22;40900;52.710;6.438;2022-11-14T00:03:07;6.50;99.90
55004;DHT22;40900;52.710;6.438;2022-11-14T00:05:38;6.50;99.90
55004;DHT22;40900;52.710;6.438;2022-11-14T00:08:04;6.40;99.90
55004;DHT22;40900;52.710;6.438;2022-11-14T00:10:30;6.50;99.90
55004;DHT22;40900;52.710;6.438;2022-11-14T00:12:56;6.50;99.90
55004;DHT22;40900;52.710;6.438;2022-11-14T00:15:21;6.50;99.90
55004;DHT22;40900;52.710;6.438;2022-11-14T00:17:47;6.50;99.90
55004;DHT22;40900;52.710;6.438;2022-11-14T00:20:13;6.50;99.90
55004;DHT22;40900;52.710;6.438;2022-11-14T00:22:39;6.50;99.90
55004;DHT22;40900;52.710;6.438;2022-11-14T00:25:05;6.60;99.90
55004;DHT22;40900;52.710;6.438;2022-11-14T00:27:30;6.60;99.90
55004;DHT22;40900;52.710;6.438;2022-11-14T00:29:56;6.60;99.90
55004;DHT22;40900;52.710;6.438;2022-11-14T00:32:22;6.60;99.90
55004;DHT22;40900;52.710;6.438;2022-11-14T00:34:48;6.70;99.90
55004;DHT22;40900;52.710;6.438;2022-11-14T00:37:14;6.60;99.90
55004;DHT22;40900;52.710;6.438;2022-11-14T00:39:39;6.60;99.90
55004;DHT22;40900;52.710;6.438;2022-11-14T00:42:05;6.70;99.90
55004;DHT22;40900;52.710;6.438;2022-11-14T00:44:31;6.60;99.90
55004;DHT22;40900;52.710;6.438;2022-11-14T00:46:56;6.70;99.90
55004;DHT22;40900;52.710;6.438;2022-11-14T00:49:22;6.70;99.90
55004;DHT22;40900;52.710;6.438;2022-11-14T00:51:48;6.60;99.90
55004;DHT22;40900;52.710;6.438;2022-11-14T00:54:13;6.60;99.90
55004;DHT22;40900;52.710;6.438;2022-11-14T00:56:39;6.60;99.90
55004;DHT22;40900;52.710;6.438;2022-11-14T00:59:05;6.60;99.90
55004;DHT22;40900;52.710;6.438;2022-11-14T01:01:30;6.60;99.90
55004;DHT22;40900;52.710;6.438;2022-11-14T01:03:56;6.60;99.90
55004;DHT22;40900;52.710;6.438;2022-11-14T01:06:22;6.70;99.90
55004;DHT22;40900;52.710;6.438;2022-11-14T01:08:49;6.70;99.90
55004;DHT22;40900;52.710;6.438;2022-11-14T01:11:19;6.60;99.90
55004;DHT22;40900;52.710;6.438;2022-11-14T01:13:45;6.70;99.90
55004;DHT22;40900;52.710;6.438;2022-11-14T01:16:11;6.60;99.90
55004;DHT22;40900;52.710;6.438;2022-11-14T01:18:38;6.60;99.90
55004;DHT22;40900;52.710;6.438;2022-11-14T01:21:08;6.70;99.90
55004;DHT22;40900;52.710;6.438;2022-11-14T01:23:34;6.60;99.90
55004;DHT22;40900;52.710;6.438;2022-11-14T01:26:04;6.60;99.90
55004;DHT22;40900;52.710;6.438;2022-11-14T01:28:31;6.60;99.90
55004;DHT22;40900;52.710;6.438;2022-11-14T01:31:06;6.60;99.90
55004;DHT22;40900;52.710;6.438;2022-11-14T01:33:32;6.70;99.90
55004;DHT22;40900;52.710;6.438;2022-11-14T01:36:01;6.60;99.90
55004;DHT22;40900;52.710;6.438;2022-11-14T01:38:26;6.60;99.90
55004;DHT22;40900;52.710;6.438;2022-11-14T01:40:52;6.50;99.90
55004;DHT22;40900;52.710;6.438;2022-11-14T01:48:44;6.50;99.90
55004;DHT22;40900;52.710;6.438;2022-11-14T01:51:34;6.50;99.90
55004;DHT22;40900;52.710;6.438;2022-11-14T01:54:09;6.40;99.90
55004;DHT22;40900;52.710;6.438;2022-11-14T01:56:44;6.40;99.90
55004;DHT22;40900;52.710;6.438;2022-11-14T01:59:14;6.40;99.90
55004;DHT22;40900;52.710;6.438;2022-11-14T02:01:45;6.30;99.90
55004;DHT22;40900;52.710;6.438;2022-11-14T02:04:26;6.30;99.90
55004;DHT22;40900;52.710;6.438;2022-11-14T02:06:55;6.30;99.90
55004;DHT22;40900;52.710;6.438;2022-11-14T02:09:22;6.30;99.90
55004;DHT22;40900;52.710;6.438;2022-11-14T02:11:48;6.30;99.90
55004;DHT22;40900;52.710;6.438;2022-11-14T02:14:14;6.40;99.90
55004;DHT22;40900;52.710;6.438;2022-11-14T02:16:41;6.30;99.90
55004;DHT22;40900;52.710;6.438;2022-11-14T02:19:08;6.30;99.90
55004;DHT22;40900;52.710;6.438;2022-11-14T02:21:34;6.30;99.90
55004;DHT22;40900;52.710;6.438;2022-11-14T02:24:00;6.30;99.90
55004;DHT22;40900;52.710;6.438;2022-11-14T02:26:26;6.30;99.90
55004;DHT22;40900;52.710;6.438;2022-11-14T02:28:51;6.20;99.90
55004;DHT22;40900;52.710;6.438;2022-11-14T02:31:17;6.20;99.90
55004;DHT22;40900;52.710;6.438;2022-11-14T02:33:43;6.20;99.90
55004;DHT22;40900;52.710;6.438;2022-11-14T02:36:09;6.20;99.90
55004;DHT22;40900;52.710;6.438;2022-11-14T02:38:35;6.10;99.90
55004;DHT22;40900;52.710;6.438;2022-11-14T02:41:01;6.20;99.90
55004;DHT22;40900;52.710;6.438;2022-11-14T02:43:27;6.10;99.90
55004;DHT22;40900;52.710;6.438;2022-11-14T02:45:53;6.10;99.90
55004;DHT22;40900;52.710;6.438;2022-11-14T02:48:18;6.10;99.90
55004;DHT22;40900;52.710;6.438;2022-11-14T02:50:47;6.10;99.90
55004;DHT22;40900;52.710;6.438;2022-11-14T02:53:13;6.10;99.90
55004;DHT22;40900;52.710;6.438;2022-11-14T02:55:38;6.10;99.90
55004;DHT22;40900;52.710;6.438;2022-11-14T02:58:04;6.10;99.90
55004;DHT22;40900;52.710;6.438;2022-11-14T03:00:29;6.00;99.90
55004;DHT22;40900;52.710;6.438;2022-11-14T03:02:55;6.10;99.90
55004;DHT22;40900;52.710;6.438;2022-11-14T03:05:21;6.10;99.90
55004;DHT22;40900;52.710;6.438;2022-11-14T03:07:47;6.00;99.90
55004;DHT22;40900;52.710;6.438;2022-11-14T03:10:12;6.00;99.90
55004;DHT22;40900;52.710;6.438;2022-11-14T03:12:38;6.10;99.90
55004;DHT22;40900;52.710;6.438;2022-11-14T03:15:05;6.10;99.90
55004;DHT22;40900;52.710;6.438;2022-11-14T03:17:33;6.10;99.90
55004;DHT22;40900;52.710;6.438;2022-11-14T03:19:59;6.10;99.90
55004;DHT22;40900;52.710;6.438;2022-11-14T03:22:25;6.00;99.90
55004;DHT22;40900;52.710;6.438;2022-11-14T03:24:51;6.00;99.90
55004;DHT22;40900;52.710;6.438;2022-11-14T03:27:17;6.00;99.90
55004;DHT22;40900;52.710;6.438;2022-11-14T03:29:43;6.00;99.90
55004;DHT22;40900;52.710;6.438;2022-11-14T03:32:08;5.90;99.90
55004;DHT22;40900;52.710;6.438;2022-11-14T03:34:34;5.90;99.90
55004;DHT22;40900;52.710;6.438;2022-11-14T03:37:00;5.90;99.90
55004;DHT22;40900;52.710;6.438;2022-11-14T03:39:26;5.90;99.90
55004;DHT22;40900;52.710;6.438;2022-11-14T03:41:52;5.90;99.90
55004;DHT22;40900;52.710;6.438;2022-11-14T03:44:17;5.90;99.90
55004;DHT22;40900;52.710;6.438;2022-11-14T03:46:43;5.90;99.90
55004;DHT22;40900;52.710;6.438;2022-11-14T03:49:09;5.90;99.90
55004;DHT22;40900;52.710;6.438;2022-11-14T03:51:34;5.80;99.90
55004;DHT22;40900;52.710;6.438;2022-11-14T03:54:00;5.80;99.90
55004;DHT22;40900;52.710;6.438;2022-11-14T03:56:26;5.80;99.90
55004;DHT22;40900;52.710;6.438;2022-11-14T03:58:52;5.80;99.90
55004;DHT22;40900;52.710;6.438;2022-11-14T04:01:17;5.80;99.90
55004;DHT22;40900;52.710;6.438;2022-11-14T04:03:43;5.80;99.90
55004;DHT22;40900;52.710;6.438;2022-11-14T04:06:09;5.80;99.90
55004;DHT22;40900;52.710;6.438;2022-11-14T04:08:34;5.90;99.90
55004;DHT22;40900;52.710;6.438;2022-11-14T04:11:00;5.80;99.90
55004;DHT22;40900;52.710;6.438;2022-11-14T04:13:26;5.80;99.90
55004;DHT22;40900;52.710;6.438;2022-11-14T04:15:56;5.80;99.90
55004;DHT22;40900;52.710;6.438;2022-11-14T04:18:23;5.80;99.90
55004;DHT22;40900;52.710;6.438;2022-11-14T04:20:49;5.80;99.90
55004;DHT22;40900;52.710;6.438;2022-11-14T04:23:14;5.80;99.90
55004;DHT22;40900;52.710;6.438;2022-11-14T04:25:42;5.70;99.90
55004;DHT22;40900;52.710;6.438;2022-11-14T04:28:08;5.70;99.90
55004;DHT22;40900;52.710;6.438;2022-11-14T04:30:34;5.70;99.90
55004;DHT22;40900;52.710;6.438;2022-11-14T04:32:59;5.70;99.90
55004;DHT22;40900;52.710;6.438;2022-11-14T04:35:25;5.70;99.90
55004;DHT22;40900;52.710;6.438;2022-11-14T04:37:50;5.80;99.90
55004;DHT22;40900;52.710;6.438;2022-11-14T04:40:16;5.70;99.90
55004;DHT22;40900;52.710;6.438;2022-11-14T04:42:42;5.80;99.90
55004;DHT22;40900;52.710;6.438;2022-11-14T04:45:08;5.70;99.90
55004;DHT22;40900;52.710;6.438;2022-11-14T04:47:34;5.70;99.90
55004;DHT22;40900;52.710;6.438;2022-11-14T04:49:59;5.70;99.90
55004;DHT22;40900;52.710;6.438;2022-11-14T04:52:25;5.80;99.90
55004;DHT22;40900;52.710;6.438;2022-11-14T04:54:51;5.80;99.90
55004;DHT22;40900;52.710;6.438;2022-11-14T04:57:16;5.70;99.90
55004;DHT22;40900;52.710;6.438;2022-11-14T04:59:42;5.70;99.90
55004;DHT22;40900;52.710;6.438;2022-11-14T05:02:08;5.80;99.90
55004;DHT22;40900;52.710;6.438;2022-11-14T05:04:34;5.70;99.90
55004;DHT22;40900;52.710;6.438;2022-11-14T05:06:59;5.70;99.90
55004;DHT22;40900;52.710;6.438;2022-11-14T05:09:25;5.70;99.90
55004;DHT22;40900;52.710;6.438;2022-11-14T05:11:51;5.80;99.90
55004;DHT22;40900;52.710;6.438;2022-11-14T05:14:16;5.70;99.90
55004;DHT22;40900;52.710;6.438;2022-11-14T05:16:42;5.80;99.90
55004;DHT22;40900;52.710;6.438;2022-11-14T05:19:08;5.70;99.90
55004;DHT22;40900;52.710;6.438;2022-11-14T05:21:34;5.80;99.90
55004;DHT22;40900;52.710;6.438;2022-11-14T05:23:59;5.70;99.90
55004;DHT22;40900;52.710;6.438;2022-11-14T05:26:25;5.70;99.90
55004;DHT22;40900;52.710;6.438;2022-11-14T05:28:51;5.70;99.90
55004;DHT22;40900;52.710;6.438;2022-11-14T05:31:16;5.70;99.90
55004;DHT22;40900;52.710;6.438;2022-11-14T05:33:43;5.70;99.90
55004;DHT22;40900;52.710;6.438;2022-11-14T05:36:14;5.70;99.90
55004;DHT22;40900;52.710;6.438;2022-11-14T05:38:41;5.80;99.90
55004;DHT22;40900;52.710;6.438;2022-11-14T05:41:10;5.70;99.90
55004;DHT22;40900;52.710;6.438;2022-11-14T05:43:36;5.80;99.90
55004;DHT22;40900;52.710;6.438;2022-11-14T05:46:04;5.80;99.90
55004;DHT22;40900;52.710;6.438;2022-11-14T05:48:30;5.80;99.90
55004;DHT22;40900;52.710;6.438;2022-11-14T05:50:58;5.80;99.90
55004;DHT22;40900;52.710;6.438;2022-11-14T05:53:24;5.80;99.90
55004;DHT22;40900;52.710;6.438;2022-11-14T05:55:50;5.80;99.90
55004;DHT22;40900;52.710;6.438;2022-11-14T05:58:16;5.80;99.90
55004;DHT22;40900;52.710;6.438;2022-11-14T06:00:42;5.80;99.90
55004;DHT22;40900;52.710;6.438;2022-11-14T06:03:08;5.80;99.90
55004;DHT22;40900;52.710;6.438;2022-11-14T06:05:34;5.80;99.90
55004;DHT22;40900;52.710;6.438;2022-11-14T06:08:01;5.80;99.90
55004;DHT22;40900;52.710;6.438;2022-11-14T06:10:27;5.80;99.90
55004;DHT22;40900;52.710;6.438;2022-11-14T06:12:53;5.80;99.90
55004;DHT22;40900;52.710;6.438;2022-11-14T06:15:19;5.80;99.90
55004;DHT22;40900;52.710;6.438;2022-11-14T06:17:45;5.80;99.90
55004;DHT22;40900;52.710;6.438;2022-11-14T06:20:11;5.80;99.90
55004;DHT22;40900;52.710;6.438;2022-11-14T06:22:40;5.70;99.90
55004;DHT22;40900;52.710;6.438;2022-11-14T06:25:06;5.70;99.90
55004;DHT22;40900;52.710;6.438;2022-11-14T06:27:32;5.70;99.90
55004;DHT22;40900;52.710;6.438;2022-11-14T06:29:58;5.70;99.90
55004;DHT22;40900;52.710;6.438;2022-11-14T06:32:23;5.70;99.90
55004;DHT22;40900;52.710;6.438;2022-11-14T06:34:49;5.70;99.90
55004;DHT22;40900;52.710;6.438;2022-11-14T06:37:15;5.70;99.90
55004;DHT22;40900;52.710;6.438;2022-11-14T06:39:40;5.60;99.90
55004;DHT22;40900;52.710;6.438;2022-11-14T06:42:06;5.60;99.90
55004;DHT22;40900;52.710;6.438;2022-11-14T06:44:32;5.60;99.90
55004;DHT22;40900;52.710;6.438;2022-11-14T06:46:57;5.60;99.90
55004;DHT22;40900;52.710;6.438;2022-11-14T06:49:23;5.60;99.90
55004;DHT22;40900;52.710;6.438;2022-11-14T06:51:52;5.60;99.90
55004;DHT22;40900;52.710;6.438;2022-11-14T06:54:18;5.60;99.90
55004;DHT22;40900;52.710;6.438;2022-11-14T06:56:44;5.60;99.90
55004;DHT22;40900;52.710;6.438;2022-11-14T06:59:10;5.50;99.90
55004;DHT22;40900;52.710;6.438;2022-11-14T07:01:36;5.50;99.90
55004;DHT22;40900;52.710;6.438;2022-11-14T07:04:01;5.50;99.90
55004;DHT22;40900;52.710;6.438;2022-11-14T07:06:29;5.40;99.90
55004;DHT22;40900;52.710;6.438;2022-11-14T07:08:56;5.40;99.90
55004;DHT22;40900;52.710;6.438;2022-11-14T07:11:24;5.40;99.90
55004;DHT22;40900;52.710;6.438;2022-11-14T07:13:54;5.40;99.90
55004;DHT22;40900;52.710;6.438;2022-11-14T07:16:23;5.40;99.90
55004;DHT22;40900;52.710;6.438;2022-11-14T07:18:48;5.40;99.90
55004;DHT22;40900;52.710;6.438;2022-11-14T07:21:14;5.40;99.90
55004;DHT22;40900;52.710;6.438;2022-11-14T07:23:40;5.40;99.90
55004;DHT22;40900;52.710;6.438;2022-11-14T07:26:07;5.40;99.90
55004;DHT22;40900;52.710;6.438;2022-11-14T07:28:35;5.40;99.90
55004;DHT22;40900;52.710;6.438;2022-11-14T07:31:05;5.40;99.90
55004;DHT22;40900;52.710;6.438;2022-11-14T07:33:32;5.40;99.90
55004;DHT22;40900;52.710;6.438;2022-11-14T07:35:58;5.40;99.90
55004;DHT22;40900;52.710;6.438;2022-11-14T07:38:23;5.50;99.90
55004;DHT22;40900;52.710;6.438;2022-11-14T07:40:57;5.50;99.90
55004;DHT22;40900;52.710;6.438;2022-11-14T07:43:23;5.50;99.90
55004;DHT22;40900;52.710;6.438;2022-11-14T07:45:49;5.50;99.90
55004;DHT22;40900;52.710;6.438;2022-11-14T07:48:15;5.50;99.90
55004;DHT22;40900;52.710;6.438;2022-11-14T07:50:41;5.50;99.90
55004;DHT22;40900;52.710;6.438;2022-11-14T07:53:07;5.50;99.90
55004;DHT22;40900;52.710;6.438;2022-11-14T07:55:37;5.50;99.90
55004;DHT22;40900;52.710;6.438;2022-11-14T07:58:03;5.60;99.90
55004;DHT22;40900;52.710;6.438;2022-11-14T08:00:29;5.60;99.90
55004;DHT22;40900;52.710;6.438;2022-11-14T08:02:55;5.60;99.90
55004;DHT22;40900;52.710;6.438;2022-11-14T08:05:20;5.70;99.90
55004;DHT22;40900;52.710;6.438;2022-11-14T08:07:49;5.80;99.90
55004;DHT22;40900;52.710;6.438;2022-11-14T08:10:15;5.80;99.90
55004;DHT22;40900;52.710;6.438;2022-11-14T08:12:42;5.90;99.90
55004;DHT22;40900;52.710;6.438;2022-11-14T08:15:10;5.90;99.90
55004;DHT22;40900;52.710;6.438;2022-11-14T08:17:36;6.00;99.90
55004;DHT22;40900;52.710;6.438;2022-11-14T08:20:03;6.00;99.90
55004;DHT22;40900;52.710;6.438;2022-11-14T08:22:29;6.00;99.90
55004;DHT22;40900;52.710;6.438;2022-11-14T08:24:56;6.00;99.90
55004;DHT22;40900;52.710;6.438;2022-11-14T08:27:22;6.00;99.90
55004;DHT22;40900;52.710;6.438;2022-11-14T08:29:48;6.00;99.90
55004;DHT22;40900;52.710;6.438;2022-11-14T08:32:19;6.00;99.90
55004;DHT22;40900;52.710;6.438;2022-11-14T08:34:44;6.00;99.90
55004;DHT22;40900;52.710;6.438;2022-11-14T08:37:10;6.10;99.90
55004;DHT22;40900;52.710;6.438;2022-11-14T08:39:36;6.20;99.90
55004;DHT22;40900;52.710;6.438;2022-11-14T08:42:01;6.30;99.90
55004;DHT22;40900;52.710;6.438;2022-11-14T08:44:27;6.40;99.90
55004;DHT22;40900;52.710;6.438;2022-11-14T08:46:53;6.50;99.90
55004;DHT22;40900;52.710;6.438;2022-11-14T08:49:18;6.60;99.90
55004;DHT22;40900;52.710;6.438;2022-11-14T08:51:44;6.80;99.90
55004;DHT22;40900;52.710;6.438;2022-11-14T08:54:10;7.00;99.90
55004;DHT22;40900;52.710;6.438;2022-11-14T08:56:35;7.30;99.90
55004;DHT22;40900;52.710;6.438;2022-11-14T08:59:04;7.80;99.90
55004;DHT22;40900;52.710;6.438;2022-11-14T09:01:30;8.30;99.90
55004;DHT22;40900;52.710;6.438;2022-11-14T09:03:59;8.90;99.90
55004;DHT22;40900;52.710;6.438;2022-11-14T09:06:25;9.30;99.90
55004;DHT22;40900;52.710;6.438;2022-11-14T09:08:51;9.70;99.90
55004;DHT22;40900;52.710;6.438;2022-11-14T09:11:16;9.80;99.90
55004;DHT22;40900;52.710;6.438;2022-11-14T09:13:42;9.90;99.90
55004;DHT22;40900;52.710;6.438;2022-11-14T09:16:08;10.30;99.90
55004;DHT22;40900;52.710;6.438;2022-11-14T09:18:33;10.50;99.90
55004;DHT22;40900;52.710;6.438;2022-11-14T09:21:01;10.50;99.90
55004;DHT22;40900;52.710;6.438;2022-11-14T09:23:27;10.50;99.90
55004;DHT22;40900;52.710;6.438;2022-11-14T09:25:53;11.20;99.90
55004;DHT22;40900;52.710;6.438;2022-11-14T09:28:20;11.70;99.90
55004;DHT22;40900;52.710;6.438;2022-11-14T09:30:46;12.20;99.90
55004;DHT22;40900;52.710;6.438;2022-11-14T09:33:11;12.80;99.90
55004;DHT22;40900;52.710;6.438;2022-11-14T09:35:37;13.20;99.90
55004;DHT22;40900;52.710;6.438;2022-11-14T09:38:09;13.20;99.90
55004;DHT22;40900;52.710;6.438;2022-11-14T09:40:59;13.60;99.90
55004;DHT22;40900;52.710;6.438;2022-11-14T09:46:09;14.10;99.90
55004;DHT22;40900;52.710;6.438;2022-11-14T09:48:38;14.00;99.90
55004;DHT22;40900;52.710;6.438;2022-11-14T09:51:05;14.10;99.90
55004;DHT22;40900;52.710;6.438;2022-11-14T09:53:51;14.40;99.90
55004;DHT22;40900;52.710;6.438;2022-11-14T09:56:24;14.60;99.90
55004;DHT22;40900;52.710;6.438;2022-11-14T09:58:51;14.90;99.90
55004;DHT22;40900;52.710;6.438;2022-11-14T10:01:43;15.30;99.90
55004;DHT22;40900;52.710;6.438;2022-11-14T10:04:40;15.50;99.90
55004;DHT22;40900;52.710;6.438;2022-11-14T10:12:42;15.40;99.90
55004;DHT22;40900;52.710;6.438;2022-11-14T10:20:36;16.20;99.90
55004;DHT22;40900;52.710;6.438;2022-11-14T10:23:19;16.70;99.90
55004;DHT22;40900;52.710;6.438;2022-11-14T10:37:16;16.90;99.90
55004;DHT22;40900;52.710;6.438;2022-11-14T10:39:52;16.80;99.90
55004;DHT22;40900;52.710;6.438;2022-11-14T10:42:29;17.20;99.90
55004;DHT22;40900;52.710;6.438;2022-11-14T10:45:02;17.40;99.90
55004;DHT22;40900;52.710;6.438;2022-11-14T10:47:35;17.40;99.90
55004;DHT22;40900;52.710;6.438;2022-11-14T10:50:27;17.80;99.60
55004;DHT22;40900;52.710;6.438;2022-11-14T10:52:58;17.90;98.70
55004;DHT22;40900;52.710;6.438;2022-11-14T10:55:25;18.40;99.40
55004;DHT22;40900;52.710;6.438;2022-11-14T10:57:51;18.10;98.60
55004;DHT22;40900;52.710;6.438;2022-11-14T11:00:22;18.10;99.30
55004;DHT22;40900;52.710;6.438;2022-11-14T11:02:52;18.50;99.10
55004;DHT22;40900;52.710;6.438;2022-11-14T11:05:21;18.20;99.80
55004;DHT22;40900;52.710;6.438;2022-11-14T11:07:48;17.50;99.90
55004;DHT22;40900;52.710;6.438;2022-11-14T11:10:34;17.10;99.90
55004;DHT22;40900;52.710;6.438;2022-11-14T11:13:52;16.20;99.90
55004;DHT22;40900;52.710;6.438;2022-11-14T11:16:21;15.20;99.90
55004;DHT22;40900;52.710;6.438;2022-11-14T11:18:46;14.30;99.90
55004;DHT22;40900;52.710;6.438;2022-11-14T11:21:16;13.80;99.90
55004;DHT22;40900;52.710;6.438;2022-11-14T11:24:02;13.30;99.90
55004;DHT22;40900;52.710;6.438;2022-11-14T11:26:31;12.80;99.90
55004;DHT22;40900;52.710;6.438;2022-11-14T11:29:06;12.50;99.90
55004;DHT22;40900;52.710;6.438;2022-11-14T11:31:56;12.20;99.90
55004;DHT22;40900;52.710;6.438;2022-11-14T11:34:27;12.10;99.90
55004;DHT22;40900;52.710;6.438;2022-11-14T11:37:17;11.80;99.90
55004;DHT22;40900;52.710;6.438;2022-11-14T11:39:53;11.60;99.90
55004;DHT22;40900;52.710;6.438;2022-11-14T11:44:52;11.50;99.90
55004;DHT22;40900;52.710;6.438;2022-11-14T11:47:20;11.50;99.90
55004;DHT22;40900;52.710;6.438;2022-11-14T11:49:51;11.50;99.90
55004;DHT22;40900;52.710;6.438;2022-11-14T11:54:52;11.40;99.90
55004;DHT22;40900;52.710;6.438;2022-11-14T11:57:26;11.40;99.90
55004;DHT22;40900;52.710;6.438;2022-11-14T12:00:03;11.40;99.90
55004;DHT22;40900;52.710;6.438;2022-11-14T12:02:30;11.30;99.90
55004;DHT22;40900;52.710;6.438;2022-11-14T12:04:56;11.20;99.90
55004;DHT22;40900;52.710;6.438;2022-11-14T12:10:16;11.30;99.90
55004;DHT22;40900;52.710;6.438;2022-11-14T12:13:14;11.30;99.90
55004;DHT22;40900;52.710;6.438;2022-11-14T12:15:55;11.20;99.90
55004;DHT22;40900;52.710;6.438;2022-11-14T12:21:09;11.10;99.90
55004;DHT22;40900;52.710;6.438;2022-11-14T12:31:39;10.90;99.90
55004;DHT22;40900;52.710;6.438;2022-11-14T12:34:21;11.00;99.90
55004;DHT22;40900;52.710;6.438;2022-11-14T12:36:49;10.90;99.90
55004;DHT22;40900;52.710;6.438;2022-11-14T12:39:41;10.90;99.90
55004;DHT22;40900;52.710;6.438;2022-11-14T12:42:09;10.90;99.90
55004;DHT22;40900;52.710;6.438;2022-11-14T12:44:39;10.90;99.90
55004;DHT22;40900;52.710;6.438;2022-11-14T12:58:16;10.80;99.90
55004;DHT22;40900;52.710;6.438;2022-11-14T13:06:08;10.70;99.90
55004;DHT22;40900;52.710;6.438;2022-11-14T13:14:15;10.70;99.90
55004;DHT22;40900;52.710;6.438;2022-11-14T13:17:24;10.60;99.90
55004;DHT22;40900;52.710;6.438;2022-11-14T13:28:48;10.50;99.90
55004;DHT22;40900;52.710;6.438;2022-11-14T13:33:46;10.50;99.90
55004;DHT22;40900;52.710;6.438;2022-11-14T13:42:08;10.40;99.90
55004;DHT22;40900;52.710;6.438;2022-11-14T13:50:07;10.50;99.90
55004;DHT22;40900;52.710;6.438;2022-11-14T13:52:44;10.40;99.90
55004;DHT22;40900;52.710;6.438;2022-11-14T13:55:22;10.40;99.90
55004;DHT22;40900;52.710;6.438;2022-11-14T14:03:54;10.40;99.90
55004;DHT22;40900;52.710;6.438;2022-11-14T14:06:45;10.40;99.90
55004;DHT22;40900;52.710;6.438;2022-11-14T14:15:16;10.20;99.90
55004;DHT22;40900;52.710;6.438;2022-11-14T14:20:47;10.20;99.90
55004;DHT22;40900;52.710;6.438;2022-11-14T14:23:49;10.20;99.90
55004;DHT22;40900;52.710;6.438;2022-11-14T14:29:24;10.10;99.90
55004;DHT22;40900;52.710;6.438;2022-11-14T14:31:53;10.10;99.90
55004;DHT22;40900;52.710;6.438;2022-11-14T14:34:30;10.00;99.90
55004;DHT22;40900;52.710;6.438;2022-11-14T14:36:57;10.00;99.90
55004;DHT22;40900;52.710;6.438;2022-11-14T14:39:25;10.00;99.90
55004;DHT22;40900;52.710;6.438;2022-11-14T14:41:53;10.00;99.90
55004;DHT22;40900;52.710;6.438;2022-11-14T14:44:37;9.90;99.90
55004;DHT22;40900;52.710;6.438;2022-11-14T14:49:42;9.80;99.90
55004;DHT22;40900;52.710;6.438;2022-11-14T14:52:31;9.80;99.90
55004;DHT22;40900;52.710;6.438;2022-11-14T14:54:57;9.80;99.90
55004;DHT22;40900;52.710;6.438;2022-11-14T14:57:27;9.70;99.90
55004;DHT22;40900;52.710;6.438;2022-11-14T15:02:28;9.70;99.90
55004;DHT22;40900;52.710;6.438;2022-11-14T15:04:55;9.70;99.90
55004;DHT22;40900;52.710;6.438;2022-11-14T15:07:25;9.70;99.90
55004;DHT22;40900;52.710;6.438;2022-11-14T15:09:58;9.60;99.90
55004;DHT22;40900;52.710;6.438;2022-11-14T15:12:25;9.70;99.90
55004;DHT22;40900;52.710;6.438;2022-11-14T15:14:55;9.70;99.90
55004;DHT22;40900;52.710;6.438;2022-11-14T15:17:22;9.70;99.90
55004;DHT22;40900;52.710;6.438;2022-11-14T15:19:51;9.70;99.90
55004;DHT22;40900;52.710;6.438;2022-11-14T15:24:43;9.70;99.90
55004;DHT22;40900;52.710;6.438;2022-11-14T15:27:16;9.70;99.90
55004;DHT22;40900;52.710;6.438;2022-11-14T15:29:47;9.70;99.90
55004;DHT22;40900;52.710;6.438;2022-11-14T15:32:25;9.70;99.90
55004;DHT22;40900;52.710;6.438;2022-11-14T15:40:39;9.70;99.90
55004;DHT22;40900;52.710;6.438;2022-11-14T15:43:36;9.70;99.90
55004;DHT22;40900;52.710;6.438;2022-11-14T15:46:03;9.60;99.90
55004;DHT22;40900;52.710;6.438;2022-11-14T15:48:30;9.60;99.90
55004;DHT22;40900;52.710;6.438;2022-11-14T15:50:55;9.60;99.90
55004;DHT22;40900;52.710;6.438;2022-11-14T15:53:23;9.60;99.90
55004;DHT22;40900;52.710;6.438;2022-11-14T15:55:49;9.60;99.90
55004;DHT22;40900;52.710;6.438;2022-11-14T15:58:15;9.60;99.90
55004;DHT22;40900;52.710;6.438;2022-11-14T16:00:47;9.60;99.90
55004;DHT22;40900;52.710;6.438;2022-11-14T16:03:17;9.50;99.90
55004;DHT22;40900;52.710;6.438;2022-11-14T16:05:43;9.50;99.90
55004;DHT22;40900;52.710;6.438;2022-11-14T16:08:11;9.50;99.90
55004;DHT22;40900;52.710;6.438;2022-11-14T16:10:37;9.40;99.90
55004;DHT22;40900;52.710;6.438;2022-11-14T16:13:03;9.40;99.90
55004;DHT22;40900;52.710;6.438;2022-11-14T16:15:29;9.40;99.90
55004;DHT22;40900;52.710;6.438;2022-11-14T16:17:55;9.40;99.90
55004;DHT22;40900;52.710;6.438;2022-11-14T16:20:23;9.40;99.90
55004;DHT22;40900;52.710;6.438;2022-11-14T16:22:50;9.40;99.90
55004;DHT22;40900;52.710;6.438;2022-11-14T16:25:23;9.30;99.90
55004;DHT22;40900;52.710;6.438;2022-11-14T16:27:49;9.40;99.90
55004;DHT22;40900;52.710;6.438;2022-11-14T16:30:17;9.40;99.90
55004;DHT22;40900;52.710;6.438;2022-11-14T16:32:45;9.40;99.90
55004;DHT22;40900;52.710;6.438;2022-11-14T16:35:16;9.40;99.90
55004;DHT22;40900;52.710;6.438;2022-11-14T16:37:43;9.40;99.90
55004;DHT22;40900;52.710;6.438;2022-11-14T16:40:15;9.50;99.90
55004;DHT22;40900;52.710;6.438;2022-11-14T16:42:42;9.50;99.90
55004;DHT22;40900;52.710;6.438;2022-11-14T16:45:08;9.50;99.90
55004;DHT22;40900;52.710;6.438;2022-11-14T16:47:34;9.50;99.90
55004;DHT22;40900;52.710;6.438;2022-11-14T16:49:59;9.50;99.90
55004;DHT22;40900;52.710;6.438;2022-11-14T16:52:26;9.50;99.90
55004;DHT22;40900;52.710;6.438;2022-11-14T16:54:51;9.50;99.90
55004;DHT22;40900;52.710;6.438;2022-11-14T16:57:17;9.50;99.90
55004;DHT22;40900;52.710;6.438;2022-11-14T16:59:43;9.50;99.90
55004;DHT22;40900;52.710;6.438;2022-11-14T17:02:13;9.50;99.90
55004;DHT22;40900;52.710;6.438;2022-11-14T17:04:40;9.40;99.90
55004;DHT22;40900;52.710;6.438;2022-11-14T17:07:08;9.50;99.90
55004;DHT22;40900;52.710;6.438;2022-11-14T17:09:33;9.40;99.90
55004;DHT22;40900;52.710;6.438;2022-11-14T17:11:59;9.40;99.90
55004;DHT22;40900;52.710;6.438;2022-11-14T17:14:25;9.40;99.90
55004;DHT22;40900;52.710;6.438;2022-11-14T17:16:51;9.40;99.90
55004;DHT22;40900;52.710;6.438;2022-11-14T17:19:17;9.40;99.90
55004;DHT22;40900;52.710;6.438;2022-11-14T17:21:43;9.40;99.90
55004;DHT22;40900;52.710;6.438;2022-11-14T17:24:09;9.40;99.90
55004;DHT22;40900;52.710;6.438;2022-11-14T17:26:35;9.40;99.90
55004;DHT22;40900;52.710;6.438;2022-11-14T17:29:05;9.40;99.90
55004;DHT22;40900;52.710;6.438;2022-11-14T17:31:32;9.40;99.90
55004;DHT22;40900;52.710;6.438;2022-11-14T17:33:58;9.40;99.90
55004;DHT22;40900;52.710;6.438;2022-11-14T17:36:26;9.30;99.90
55004;DHT22;40900;52.710;6.438;2022-11-14T17:38:52;9.40;99.90
55004;DHT22;40900;52.710;6.438;2022-11-14T17:41:18;9.40;99.90
55004;DHT22;40900;52.710;6.438;2022-11-14T17:43:44;9.40;99.90
55004;DHT22;40900;52.710;6.438;2022-11-14T17:46:10;9.40;99.90
55004;DHT22;40900;52.710;6.438;2022-11-14T17:48:36;9.40;99.90
55004;DHT22;40900;52.710;6.438;2022-11-14T17:51:06;9.40;99.90
55004;DHT22;40900;52.710;6.438;2022-11-14T17:53:35;9.40;99.90
55004;DHT22;40900;52.710;6.438;2022-11-14T17:56:01;9.40;99.90